createdAt,value
2023-06-25T00:00:23.548Z,5.70
2023-06-25T00:02:55.357Z,6.90
2023-06-25T00:05:27.675Z,5.40
2023-06-25T00:08:04.333Z,6.40
2023-06-25T00:10:37.557Z,5.00
2023-06-25T00:13:12.225Z,4.90
2023-06-25T00:15:41.738Z,5.30
2023-06-25T00:18:13.694Z,6.00
2023-06-25T00:20:43.059Z,5.80
2023-06-25T00:23:12.340Z,6.30
2023-06-25T00:25:44.575Z,5.70
2023-06-25T00:28:19.011Z,7.30
2023-06-25T00:30:51.278Z,6.60
2023-06-25T00:33:24.022Z,6.60
2023-06-25T00:35:53.391Z,5.20
2023-06-25T00:38:32.322Z,5.20
2023-06-25T00:41:01.610Z,6.00
2023-06-25T00:43:35.552Z,5.20
2023-06-25T00:46:05.225Z,6.70
2023-06-25T00:48:34.831Z,6.10
2023-06-25T00:51:04.247Z,6.40
2023-06-25T00:53:43.650Z,6.20
2023-06-25T00:56:16.463Z,6.10
2023-06-25T00:59:31.783Z,6.80
2023-06-25T01:03:14.361Z,6.50
2023-06-25T01:06:13.053Z,6.30
2023-06-25T01:08:56.224Z,6.20
2023-06-25T01:11:25.840Z,6.20
2023-06-25T01:13:57.530Z,12.00
2023-06-25T01:16:27.771Z,7.40
2023-06-25T01:19:05.071Z,5.80
2023-06-25T01:21:37.513Z,7.40
2023-06-25T01:24:07.361Z,6.20
2023-06-25T01:26:36.742Z,6.90
2023-06-25T01:29:06.340Z,7.50
2023-06-25T01:31:35.578Z,7.20
2023-06-25T01:34:07.253Z,6.30
2023-06-25T01:36:42.646Z,6.40
2023-06-25T01:39:12.117Z,8.00
2023-06-25T01:41:41.541Z,6.50
2023-06-25T01:44:21.577Z,8.70
2023-06-25T01:46:51.262Z,7.80
2023-06-25T01:49:30.949Z,8.10
2023-06-25T01:52:08.526Z,7.00
2023-06-25T01:54:53.278Z,8.40
2023-06-25T01:57:25.149Z,6.30
2023-06-25T01:59:57.372Z,6.50
2023-06-25T02:02:26.967Z,9.10
2023-06-25T02:04:59.022Z,7.80
2023-06-25T02:07:28.479Z,6.60
2023-06-25T02:10:00.942Z,7.20
2023-06-25T02:12:32.205Z,6.50
2023-06-25T02:15:01.606Z,5.90
2023-06-25T02:17:31.033Z,6.50
2023-06-25T02:20:00.761Z,6.00
2023-06-25T02:22:30.327Z,5.50
2023-06-25T02:25:03.049Z,5.30
2023-06-25T02:27:35.552Z,6.00
2023-06-25T02:30:12.491Z,5.20
2023-06-25T02:32:41.974Z,5.00
2023-06-25T02:35:14.042Z,6.30
2023-06-25T02:37:49.654Z,5.40
2023-06-25T02:40:18.870Z,5.00
2023-06-25T02:42:48.274Z,5.20
2023-06-25T02:45:19.794Z,4.90
2023-06-25T02:47:52.259Z,5.00
2023-06-25T02:50:21.668Z,4.90
2023-06-25T02:52:51.412Z,5.10
2023-06-25T02:55:23.969Z,5.40
2023-06-25T02:57:58.243Z,5.50
2023-06-25T03:00:27.537Z,5.40
2023-06-25T03:02:57.268Z,5.20
2023-06-25T03:05:26.987Z,6.00
2023-06-25T03:08:00.668Z,4.70
2023-06-25T03:10:37.933Z,5.30
2023-06-25T03:13:11.410Z,7.20
2023-06-25T03:15:41.039Z,6.50
2023-06-25T03:18:18.497Z,5.80
2023-06-25T03:20:50.158Z,5.70
2023-06-25T03:23:21.995Z,5.40
2023-06-25T03:26:05.503Z,5.10
2023-06-25T03:31:33.885Z,5.60
2023-06-25T03:34:03.963Z,7.00
2023-06-25T03:36:38.716Z,5.90
2023-06-25T03:39:28.065Z,6.10
2023-06-25T03:42:04.982Z,7.00
2023-06-25T03:44:37.434Z,6.10
2023-06-25T03:47:17.975Z,5.70
2023-06-25T03:49:53.757Z,6.20
2023-06-25T03:52:37.239Z,8.20
2023-06-25T03:55:53.320Z,6.10
2023-06-25T03:58:37.815Z,5.20
2023-06-25T04:01:15.568Z,7.90
2023-06-25T04:03:54.573Z,5.30
2023-06-25T04:06:24.768Z,5.50
2023-06-25T04:08:54.325Z,5.20
2023-06-25T04:11:26.863Z,5.70
2023-06-25T04:13:56.010Z,5.80
2023-06-25T04:16:49.753Z,5.70
2023-06-25T04:19:22.066Z,5.50
2023-06-25T04:21:53.528Z,5.60
2023-06-25T04:24:22.800Z,5.70
2023-06-25T04:27:01.390Z,5.30
2023-06-25T04:29:30.962Z,5.90
2023-06-25T04:32:00.402Z,5.70
2023-06-25T04:34:29.997Z,5.50
2023-06-25T04:36:59.674Z,5.70
2023-06-25T04:39:29.162Z,5.80
2023-06-25T04:42:05.873Z,5.50
2023-06-25T04:44:35.354Z,5.30
2023-06-25T04:47:05.135Z,5.00
2023-06-25T04:49:35.128Z,5.20
2023-06-25T04:52:04.698Z,5.50
2023-06-25T04:54:34.274Z,5.50
2023-06-25T04:57:03.651Z,7.00
2023-06-25T04:59:33.163Z,5.50
2023-06-25T05:02:04.977Z,6.00
2023-06-25T05:04:39.859Z,6.70
2023-06-25T05:07:18.069Z,5.60
2023-06-25T05:09:49.631Z,5.50
2023-06-25T05:12:22.055Z,5.00
2023-06-25T05:14:51.481Z,5.10
2023-06-25T05:17:21.026Z,5.30
2023-06-25T05:19:53.680Z,5.90
2023-06-25T05:22:25.207Z,5.40
2023-06-25T05:25:09.277Z,5.00
2023-06-25T05:27:44.753Z,6.10
2023-06-25T05:30:18.423Z,5.20
2023-06-25T05:32:50.117Z,5.50
2023-06-25T05:35:19.600Z,5.80
2023-06-25T05:37:51.976Z,5.20
2023-06-25T05:40:24.799Z,5.60
2023-06-25T05:42:56.753Z,5.40
2023-06-25T05:45:28.381Z,5.20
2023-06-25T05:47:57.985Z,5.20
2023-06-25T05:50:33.180Z,5.90
2023-06-25T05:53:02.723Z,5.20
2023-06-25T05:55:33.941Z,5.10
2023-06-25T05:58:08.942Z,5.20
2023-06-25T06:00:49.096Z,5.50
2023-06-25T06:03:21.994Z,6.80
2023-06-25T06:05:51.778Z,5.40
2023-06-25T06:08:21.467Z,5.50
2023-06-25T06:10:53.742Z,5.80
2023-06-25T06:13:25.971Z,5.40
2023-06-25T06:15:55.590Z,5.60
2023-06-25T06:18:25.384Z,5.70
2023-06-25T06:20:54.847Z,5.20
2023-06-25T06:23:24.156Z,5.60
2023-06-25T06:25:56.214Z,5.80
2023-06-25T06:28:28.387Z,5.50
2023-06-25T06:30:57.902Z,5.10
2023-06-25T06:33:27.298Z,5.60
2023-06-25T06:36:02.281Z,5.40
2023-06-25T06:38:31.687Z,5.20
2023-06-25T06:41:06.866Z,5.50
2023-06-25T06:43:36.340Z,5.50
2023-06-25T06:46:10.335Z,6.80
2023-06-25T06:48:47.230Z,5.70
2023-06-25T06:51:16.643Z,5.40
2023-06-25T06:53:55.142Z,5.90
2023-06-25T06:56:24.710Z,5.60
2023-06-25T06:59:03.569Z,6.00
2023-06-25T07:01:33.090Z,5.60
2023-06-25T07:04:02.564Z,5.60
2023-06-25T07:06:32.081Z,5.80
2023-06-25T07:09:08.922Z,5.50
2023-06-25T07:11:38.354Z,5.90
2023-06-25T07:14:15.349Z,6.30
2023-06-25T07:16:48.366Z,6.00
2023-06-25T07:19:17.835Z,5.30
2023-06-25T07:21:50.179Z,6.40
2023-06-25T07:24:22.321Z,5.50
2023-06-25T07:26:54.443Z,5.80
2023-06-25T07:29:28.689Z,5.80
2023-06-25T07:32:00.913Z,5.30
2023-06-25T07:34:30.322Z,6.00
2023-06-25T07:37:02.337Z,5.50
2023-06-25T07:39:33.366Z,5.70
2023-06-25T07:42:03.738Z,5.80
2023-06-25T07:44:50.421Z,5.70
2023-06-25T07:47:33.793Z,6.10
2023-06-25T07:50:06.606Z,5.90
2023-06-25T07:52:49.856Z,5.70
2023-06-25T07:55:19.526Z,6.40
2023-06-25T07:57:54.026Z,5.90
2023-06-25T08:00:23.465Z,6.30
2023-06-25T08:02:52.890Z,6.20
2023-06-25T08:05:24.917Z,5.80
2023-06-25T08:08:01.493Z,5.60
2023-06-25T08:10:31.002Z,5.40
2023-06-25T08:13:00.514Z,5.80
2023-06-25T08:15:32.332Z,6.10
2023-06-25T08:18:04.341Z,5.50
2023-06-25T08:20:38.801Z,5.80
2023-06-25T08:23:11.234Z,5.60
2023-06-25T08:25:52.132Z,5.80
2023-06-25T08:28:21.593Z,5.70
2023-06-25T08:30:51.108Z,6.50
2023-06-25T08:33:23.290Z,6.20
2023-06-25T08:35:53.087Z,5.80
2023-06-25T08:38:24.097Z,6.10
2023-06-25T08:40:58.941Z,5.70
2023-06-25T08:43:34.275Z,6.20
2023-06-25T08:46:05.206Z,6.20
2023-06-25T08:48:38.515Z,6.20
2023-06-25T08:51:24.327Z,5.80
2023-06-25T08:54:00.442Z,6.40
2023-06-25T08:56:33.840Z,6.80
2023-06-25T08:59:05.503Z,6.60
2023-06-25T09:01:34.939Z,5.90
2023-06-25T09:04:04.175Z,6.30
2023-06-25T09:06:58.398Z,5.70
2023-06-25T09:09:34.259Z,5.60
2023-06-25T09:12:04.114Z,6.30
2023-06-25T09:14:35.462Z,6.00
2023-06-25T09:17:06.327Z,5.60
2023-06-25T09:19:35.679Z,6.50
2023-06-25T09:22:05.023Z,6.10
2023-06-25T09:24:34.557Z,5.70
2023-06-25T09:27:06.505Z,6.40
2023-06-25T09:29:40.121Z,7.20
2023-06-25T09:32:19.458Z,6.20
2023-06-25T09:34:55.046Z,6.60
2023-06-25T09:37:27.670Z,6.40
2023-06-25T09:40:00.533Z,6.20
2023-06-25T09:42:30.668Z,6.40
2023-06-25T09:45:06.237Z,6.40
2023-06-25T09:47:35.863Z,6.20
2023-06-25T09:50:14.557Z,6.20
2023-06-25T09:52:57.488Z,5.80
2023-06-25T09:55:31.556Z,6.10
2023-06-25T09:58:05.613Z,6.30
2023-06-25T10:00:36.803Z,5.70
2023-06-25T10:03:07.293Z,5.80
2023-06-25T10:05:41.186Z,5.90
2023-06-25T10:08:11.626Z,5.70
2023-06-25T10:10:44.243Z,6.10
2023-06-25T10:13:16.246Z,6.70
2023-06-25T10:15:50.354Z,6.60
2023-06-25T10:18:26.676Z,6.50
2023-06-25T10:21:01.344Z,7.40
2023-06-25T10:23:32.690Z,7.60
2023-06-25T10:26:03.790Z,6.90
2023-06-25T10:28:44.703Z,6.90
2023-06-25T10:31:21.203Z,6.30
2023-06-25T10:33:53.077Z,7.10
2023-06-25T10:36:28.099Z,6.20
2023-06-25T10:39:00.659Z,6.10
2023-06-25T10:41:38.052Z,6.40
2023-06-25T10:44:07.454Z,6.10
2023-06-25T10:46:37.432Z,6.30
2023-06-25T10:49:18.587Z,6.60
2023-06-25T10:51:48.357Z,6.10
2023-06-25T10:54:18.406Z,6.30
2023-06-25T10:56:49.479Z,6.80
2023-06-25T10:59:27.789Z,6.60
2023-06-25T11:01:57.183Z,6.40
2023-06-25T11:04:28.054Z,6.00
2023-06-25T11:06:59.497Z,6.00
2023-06-25T11:09:41.370Z,8.20
2023-06-25T11:12:11.241Z,5.90
2023-06-25T11:14:40.626Z,6.00
2023-06-25T11:17:12.952Z,5.90
2023-06-25T11:19:46.687Z,6.00
2023-06-25T11:22:19.486Z,6.40
2023-06-25T11:24:58.244Z,6.30
2023-06-25T11:27:31.291Z,6.30
2023-06-25T11:30:00.844Z,6.40
2023-06-25T11:32:32.741Z,6.20
2023-06-25T11:35:02.882Z,6.00
2023-06-25T11:37:34.139Z,6.70
2023-06-25T11:40:06.291Z,6.40
2023-06-25T11:42:43.631Z,6.70
2023-06-25T11:45:13.737Z,6.40
2023-06-25T11:47:56.230Z,5.90
2023-06-25T11:50:27.454Z,6.00
2023-06-25T11:52:58.781Z,8.00
2023-06-25T11:55:31.414Z,6.30
2023-06-25T11:58:01.101Z,6.40
2023-06-25T12:00:33.280Z,6.20
2023-06-25T12:03:02.852Z,6.10
2023-06-25T12:05:35.525Z,6.00
2023-06-25T12:08:05.705Z,6.20
2023-06-25T12:10:37.779Z,7.30
2023-06-25T12:13:07.286Z,6.20
2023-06-25T12:15:39.645Z,6.20
2023-06-25T12:18:09.380Z,6.30
2023-06-25T12:20:38.759Z,6.90
2023-06-25T12:23:08.475Z,6.40
2023-06-25T12:25:38.796Z,6.20
2023-06-25T12:28:14.865Z,8.40
2023-06-25T12:30:44.347Z,6.80
2023-06-25T12:33:13.661Z,6.40
2023-06-25T12:35:42.949Z,6.80
2023-06-25T12:38:14.784Z,6.60
2023-06-25T12:40:48.551Z,6.90
2023-06-25T12:43:18.456Z,6.10
2023-06-25T12:45:51.045Z,6.50
2023-06-25T12:48:20.964Z,6.60
2023-06-25T12:50:53.300Z,6.70
2023-06-25T12:53:22.562Z,6.80
2023-06-25T12:55:52.042Z,6.20
2023-06-25T12:58:25.360Z,6.30
2023-06-25T13:01:06.423Z,6.70
2023-06-25T13:03:39.949Z,6.90
2023-06-25T13:06:14.583Z,7.10
2023-06-25T13:08:50.119Z,6.90
2023-06-25T13:11:19.829Z,8.10
2023-06-25T13:13:49.221Z,7.40
2023-06-25T13:16:18.661Z,7.80
2023-06-25T13:18:48.030Z,6.70
2023-06-25T13:21:18.548Z,7.30
2023-06-25T13:23:47.723Z,7.10
2023-06-25T13:26:17.469Z,6.70
2023-06-25T13:28:47.019Z,6.60
2023-06-25T13:31:16.525Z,7.20
2023-06-25T13:33:46.212Z,6.10
2023-06-25T13:36:17.910Z,7.60
2023-06-25T13:38:50.153Z,6.50
2023-06-25T13:41:19.464Z,6.90
2023-06-25T13:43:49.884Z,6.90
2023-06-25T13:46:20.369Z,7.10
2023-06-25T13:48:49.752Z,6.90
2023-06-25T13:51:19.005Z,8.60
2023-06-25T13:53:52.926Z,7.90
2023-06-25T13:56:35.451Z,7.70
2023-06-25T13:59:38.618Z,8.70
2023-06-25T14:02:44.593Z,7.50
2023-06-25T14:05:56.885Z,8.00
2023-06-25T14:15:26.992Z,8.00
2023-06-25T14:17:59.492Z,8.00
2023-06-25T14:20:29.196Z,9.80
2023-06-25T14:23:03.250Z,9.00
2023-06-25T14:25:36.817Z,8.20
2023-06-25T14:28:06.973Z,7.90
2023-06-25T14:38:09.739Z,8.20
2023-06-25T14:38:31.157Z,8.20
2023-06-25T14:41:10.173Z,9.40
2023-06-25T14:44:01.566Z,9.50
2023-06-25T14:46:38.570Z,8.40
2023-06-25T14:49:07.801Z,8.00
2023-06-25T14:51:37.374Z,7.90
2023-06-25T14:54:06.822Z,8.30
2023-06-25T14:56:36.097Z,8.30
2023-06-25T14:59:05.541Z,7.90
2023-06-25T15:01:40.725Z,8.10
2023-06-25T15:04:12.424Z,7.90
2023-06-25T15:06:45.861Z,8.80
2023-06-25T15:09:18.649Z,8.30
2023-06-25T15:11:48.116Z,8.50
2023-06-25T15:14:29.002Z,7.70
2023-06-25T15:16:58.402Z,9.80
2023-06-25T15:19:28.425Z,9.30
2023-06-25T15:21:57.799Z,8.50
2023-06-25T15:24:27.103Z,9.00
2023-06-25T15:26:56.542Z,9.00
2023-06-25T15:29:26.667Z,8.00
2023-06-25T15:31:56.209Z,8.10
2023-06-25T15:34:29.754Z,8.30
2023-06-25T15:36:59.329Z,7.60
2023-06-25T15:39:28.807Z,8.60
2023-06-25T15:41:58.749Z,8.00
2023-06-25T15:44:28.189Z,9.90
2023-06-25T15:46:57.856Z,9.20
2023-06-25T15:49:27.392Z,8.50
2023-06-25T15:51:56.814Z,8.20
2023-06-25T15:54:26.808Z,8.20
2023-06-25T15:56:59.208Z,8.80
2023-06-25T15:59:36.392Z,9.50
2023-06-25T16:02:06.168Z,9.60
2023-06-25T16:04:44.241Z,9.60
2023-06-25T16:07:13.805Z,8.50
2023-06-25T16:09:43.176Z,9.10
2023-06-25T16:12:12.767Z,8.50
2023-06-25T16:14:42.197Z,8.30
2023-06-25T16:17:15.774Z,9.00
2023-06-25T16:22:17.434Z,8.50
2023-06-25T16:24:48.830Z,9.50
2023-06-25T16:27:18.167Z,8.20
2023-06-25T16:29:50.649Z,9.20
2023-06-25T16:32:20.072Z,8.60
2023-06-25T16:34:49.612Z,9.60
2023-06-25T16:37:19.905Z,8.60
2023-06-25T16:39:49.203Z,8.90
2023-06-25T16:42:18.561Z,8.90
2023-06-25T16:44:48.938Z,8.60
2023-06-25T16:47:18.386Z,9.20
2023-06-25T16:49:50.371Z,8.70
2023-06-25T16:52:22.260Z,8.60
2023-06-25T16:54:54.596Z,7.80
2023-06-25T16:57:26.286Z,8.90
2023-06-25T17:00:00.878Z,8.70
2023-06-25T17:02:33.116Z,8.30
2023-06-25T17:05:02.650Z,9.20
2023-06-25T17:07:32.109Z,8.80
2023-06-25T17:10:01.445Z,8.30
2023-06-25T17:12:33.849Z,8.50
2023-06-25T17:15:15.479Z,8.80
2023-06-25T17:17:53.628Z,9.20
2023-06-25T17:20:42.031Z,8.80
2023-06-25T17:23:23.137Z,8.40
2023-06-25T17:28:48.185Z,7.60
2023-06-25T17:31:35.791Z,8.50
2023-06-25T17:34:08.395Z,8.20
2023-06-25T17:36:40.268Z,7.20
2023-06-25T17:39:10.283Z,7.40
2023-06-25T17:41:39.850Z,8.50
2023-06-25T17:44:11.678Z,8.00
2023-06-25T17:46:45.797Z,8.10
2023-06-25T17:49:17.599Z,8.80
2023-06-25T17:51:47.128Z,7.70
2023-06-25T17:54:16.529Z,7.20
2023-06-25T17:56:46.672Z,8.60
2023-06-25T17:59:21.016Z,7.60
2023-06-25T18:01:57.445Z,8.50
2023-06-25T18:04:29.092Z,7.40
2023-06-25T18:07:00.334Z,7.50
2023-06-25T18:09:30.022Z,7.30
2023-06-25T18:12:02.276Z,8.10
2023-06-25T18:14:31.787Z,7.80
2023-06-25T18:17:01.862Z,7.90
2023-06-25T18:19:32.649Z,8.20
2023-06-25T18:22:02.632Z,8.20
2023-06-25T18:24:31.988Z,8.40
2023-06-25T18:27:01.404Z,8.50
2023-06-25T18:29:30.813Z,7.90
2023-06-25T18:32:02.367Z,7.60
2023-06-25T18:34:39.280Z,7.30
2023-06-25T18:37:08.638Z,8.20
2023-06-25T18:39:44.347Z,8.80
2023-06-25T18:42:13.901Z,7.50
2023-06-25T18:44:43.377Z,9.40
2023-06-25T18:47:18.458Z,8.00
2023-06-25T18:49:47.816Z,7.60
2023-06-25T18:52:18.199Z,7.70
2023-06-25T18:54:50.767Z,7.70
2023-06-25T18:57:20.291Z,8.40
2023-06-25T18:59:49.837Z,6.90
2023-06-25T19:02:19.357Z,7.00
2023-06-25T19:04:48.878Z,7.50
2023-06-25T19:07:18.771Z,7.60
2023-06-25T19:09:51.253Z,7.00
2023-06-25T19:12:20.590Z,6.60
2023-06-25T19:14:50.038Z,7.20
2023-06-25T19:17:22.544Z,7.50
2023-06-25T19:19:54.937Z,7.20
2023-06-25T19:22:24.842Z,7.40
2023-06-25T19:24:54.230Z,8.40
2023-06-25T19:27:57.046Z,8.10
2023-06-25T19:30:24.148Z,7.00
2023-06-25T19:32:56.399Z,8.40
2023-06-25T19:35:26.414Z,7.30
2023-06-25T19:37:57.063Z,7.50
2023-06-25T19:40:26.613Z,7.30
2023-06-25T19:42:58.332Z,7.00
2023-06-25T19:45:33.207Z,7.60
2023-06-25T19:48:02.883Z,6.80
2023-06-25T19:50:32.624Z,7.00
2023-06-25T19:53:01.970Z,7.00
2023-06-25T19:55:31.721Z,7.00
2023-06-25T19:58:01.270Z,7.60
2023-06-25T20:00:30.686Z,7.20
2023-06-25T20:03:00.219Z,7.60
2023-06-25T20:05:29.630Z,7.70
2023-06-25T20:08:01.921Z,7.70
2023-06-25T20:10:32.872Z,7.00
2023-06-25T20:13:02.911Z,7.10
2023-06-25T20:15:32.602Z,8.30
2023-06-25T20:18:02.039Z,7.20
2023-06-25T20:20:33.909Z,7.10
2023-06-25T20:23:03.581Z,7.00
2023-06-25T20:25:33.082Z,7.40
2023-06-25T20:28:02.704Z,7.00
2023-06-25T20:30:32.200Z,7.50
2023-06-25T20:33:04.245Z,8.00
2023-06-25T20:35:37.815Z,7.80
2023-06-25T20:38:17.671Z,7.00
2023-06-25T20:40:47.786Z,7.40
2023-06-25T20:43:18.392Z,7.10
2023-06-25T20:45:50.947Z,7.40
2023-06-25T20:48:20.575Z,7.20
2023-06-25T20:50:50.657Z,8.10
2023-06-25T20:53:24.147Z,7.10
2023-06-25T20:55:53.801Z,7.60
2023-06-25T20:58:23.391Z,6.70
2023-06-25T21:01:02.202Z,7.50
2023-06-25T21:03:31.700Z,7.00
2023-06-25T21:06:01.124Z,8.10
2023-06-25T21:08:30.518Z,7.10
2023-06-25T21:11:02.825Z,6.60
2023-06-25T21:13:32.390Z,7.20
2023-06-25T21:16:01.739Z,7.60
2023-06-25T21:18:33.739Z,7.40
2023-06-25T21:21:03.401Z,8.40
2023-06-25T21:23:32.836Z,8.20
2023-06-25T21:26:02.091Z,7.10
2023-06-25T21:28:31.375Z,7.90
2023-06-25T21:31:03.283Z,7.90
2023-06-25T21:33:32.541Z,8.00
2023-06-25T21:36:01.807Z,7.00
2023-06-25T21:38:34.218Z,7.90
2023-06-25T21:41:03.510Z,7.70
2023-06-25T21:43:38.235Z,6.90
2023-06-25T21:46:07.809Z,6.90
2023-06-25T21:48:37.350Z,6.60
2023-06-25T21:51:06.822Z,7.30
2023-06-25T21:53:36.751Z,6.70
2023-06-25T21:56:06.497Z,6.80
2023-06-25T21:58:36.084Z,6.40
2023-06-25T22:01:05.623Z,6.90
2023-06-25T22:03:35.105Z,7.50
2023-06-25T22:06:04.676Z,6.00
2023-06-25T22:08:34.290Z,6.20
2023-06-25T22:11:03.995Z,5.80
2023-06-25T22:13:36.650Z,6.40
2023-06-25T22:16:08.715Z,6.40
2023-06-25T22:18:41.149Z,6.20
2023-06-25T22:21:10.697Z,7.30
2023-06-25T22:23:40.634Z,7.10
2023-06-25T22:26:10.314Z,6.20
2023-06-25T22:28:42.481Z,5.90
2023-06-25T22:31:11.769Z,5.90
2023-06-25T22:33:41.258Z,6.10
2023-06-25T22:36:10.738Z,7.20
2023-06-25T22:38:40.437Z,6.70
2023-06-25T22:41:12.255Z,6.40
2023-06-25T22:43:41.698Z,6.70
2023-06-25T22:46:11.372Z,7.40
2023-06-25T22:48:44.411Z,6.30
2023-06-25T22:51:15.065Z,9.70
2023-06-25T22:53:48.328Z,6.70
2023-06-25T22:56:22.586Z,6.40
2023-06-25T22:58:53.593Z,7.10
2023-06-25T23:01:28.765Z,7.10
2023-06-25T23:03:58.243Z,12.50
2023-06-25T23:06:27.779Z,10.30
2023-06-25T23:08:57.164Z,7.40
2023-06-25T23:11:26.717Z,6.50
2023-06-25T23:13:59.113Z,6.90
2023-06-25T23:16:31.292Z,6.60
2023-06-25T23:19:02.812Z,6.90
2023-06-25T23:21:33.618Z,6.90
2023-06-25T23:24:07.625Z,7.30
2023-06-25T23:26:39.912Z,5.90
2023-06-25T23:29:15.000Z,7.60
2023-06-25T23:31:45.689Z,7.60
2023-06-25T23:34:17.953Z,6.50
2023-06-25T23:36:47.352Z,6.10
2023-06-25T23:39:16.912Z,6.70
2023-06-25T23:41:46.383Z,6.20
2023-06-25T23:44:17.378Z,8.10
2023-06-25T23:46:46.652Z,8.60
2023-06-25T23:49:18.362Z,6.70
2023-06-25T23:51:47.807Z,7.80
2023-06-25T23:54:19.629Z,6.10
2023-06-25T23:56:51.174Z,7.50
2023-06-25T23:59:22.891Z,6.80
